Time;durP1;ratioP1;P1;durP2;ratioP2;P2;SDS_P1;SDS_P2;PMS_P1;PMS_P2;Temp;Humidity;BMP_temperature;BMP_pressure;BME280_temperature;BME280_humidity;BME280_pressure;Samples;Min_cycle;Max_cycle;Signal;HPM_P1;HPM_P2
2021/07/25 00:00:44;;;;;;;48.65;20.77;;;;;;;;;;5057681;28;20056;-65
2021/07/25 00:03:11;;;;;;;18.75;14.90;;;;;;;;;;5055281;28;20144;-65
2021/07/25 00:05:40;;;;;;;36.50;17.23;;;;;;;;;;5054851;28;20481;-65
2021/07/25 00:08:11;;;;;;;23.52;14.52;;;;;;;;;;5047996;28;20044;-65
2021/07/25 00:10:38;;;;;;;61.40;21.73;;;;;;;;;;5059574;28;20033;-65
2021/07/25 00:13:04;;;;;;;22.10;15.43;;;;;;;;;;5053248;28;20045;-65
2021/07/25 00:15:30;;;;;;;19.45;14.85;;;;;;;;;;5061014;28;20063;-65
2021/07/25 00:17:56;;;;;;;18.50;13.63;;;;;;;;;;5052482;28;20037;-65
2021/07/25 00:20:22;;;;;;;16.38;13.73;;;;;;;;;;5059609;28;20546;-65
2021/07/25 00:22:48;;;;;;;17.08;14.40;;;;;;;;;;5059296;28;20086;-65
2021/07/25 00:25:21;;;;;;;32.88;17.48;;;;;;;;;;5050945;28;20531;-65
2021/07/25 00:27:55;;;;;;;16.30;13.63;;;;;;;;;;5059930;28;20045;-65
2021/07/25 00:30:21;;;;;;;17.35;13.75;;;;;;;;;;5050111;28;20415;-65
2021/07/25 00:32:48;;;;;;;41.90;19.02;;;;;;;;;;5057175;28;20209;-65
2021/07/25 00:35:14;;;;;;;30.65;16.90;;;;;;;;;;5052863;28;20132;-65
2021/07/25 00:37:43;;;;;;;29.42;15.80;;;;;;;;;;5059464;28;20458;-65
2021/07/25 00:40:30;;;;;;;28.33;17.30;;;;;;;;;;5054490;28;20060;-65
2021/07/25 00:42:57;;;;;;;33.83;17.38;;;;;;;;;;5053371;28;20091;-64
2021/07/25 00:45:23;;;;;;;85.68;25.50;;;;;;;;;;5053187;28;20080;-64
2021/07/25 00:47:49;;;;;;;20.52;14.93;;;;;;;;;;5059377;28;20047;-63
2021/07/25 00:50:16;;;;;;;37.35;19.67;;;;;;;;;;5050437;28;20470;-63
2021/07/25 00:52:42;;;;;;;38.88;21.13;;;;;;;;;;5054970;28;20037;-63
2021/07/25 00:55:08;;;;;;;34.03;19.02;;;;;;;;;;5055278;28;20499;-63
2021/07/25 00:57:35;;;;;;;27.35;16.35;;;;;;;;;;5059309;28;20123;-61
2021/07/25 01:00:01;;;;;;;29.25;16.20;;;;;;;;;;5051537;28;20497;-61
2021/07/25 01:02:33;;;;;;;22.58;16.27;;;;;;;;;;5063951;28;20190;-61
2021/07/25 01:05:07;;;;;;;78.47;26.05;;;;;;;;;;5053762;28;20052;-63
2021/07/25 01:07:40;;;;;;;50.63;24.08;;;;;;;;;;5063569;28;20431;-63
2021/07/25 01:10:06;;;;;;;98.65;30.42;;;;;;;;;;5060876;28;20139;-63
2021/07/25 01:12:34;;;;;;;65.22;23.65;;;;;;;;;;5061299;28;20064;-63
2021/07/25 01:15:02;;;;;;;27.35;19.80;;;;;;;;;;5058398;28;20099;-63
2021/07/25 01:17:35;;;;;;;66.70;25.40;;;;;;;;;;5064319;28;20047;-63
2021/07/25 01:20:02;;;;;;;25.25;17.48;;;;;;;;;;5060231;28;20485;-63
2021/07/25 01:22:30;;;;;;;96.57;29.58;;;;;;;;;;5051737;28;20090;-63
2021/07/25 01:24:57;;;;;;;83.32;29.90;;;;;;;;;;5061047;28;20041;-64
2021/07/25 01:27:36;;;;;;;28.40;18.95;;;;;;;;;;5058094;28;20032;-64
2021/07/25 01:30:04;;;;;;;68.13;27.23;;;;;;;;;;5062999;28;20052;-64
2021/07/25 01:32:30;;;;;;;94.00;30.92;;;;;;;;;;5055726;28;20490;-63
2021/07/25 01:35:00;;;;;;;26.45;18.58;;;;;;;;;;5064562;28;20048;-63
2021/07/25 01:37:28;;;;;;;55.25;24.73;;;;;;;;;;5054847;28;20037;-63
2021/07/25 01:39:54;;;;;;;25.13;19.52;;;;;;;;;;5056961;28;20051;-63
2021/07/25 01:42:27;;;;;;;33.55;20.33;;;;;;;;;;5050597;28;20123;-64
2021/07/25 01:44:56;;;;;;;52.80;23.95;;;;;;;;;;5059783;28;20504;-64
2021/07/25 01:47:22;;;;;;;91.82;32.38;;;;;;;;;;5053517;28;20485;-63
2021/07/25 01:49:48;;;;;;;136.43;35.22;;;;;;;;;;5059142;28;20135;-63
2021/07/25 01:52:14;;;;;;;68.57;27.65;;;;;;;;;;5050011;28;20067;-64
2021/07/25 01:54:42;;;;;;;48.67;23.65;;;;;;;;;;5059532;28;20142;-64
2021/07/25 01:57:08;;;;;;;30.58;19.77;;;;;;;;;;5048528;28;20421;-64
2021/07/25 01:59:34;;;;;;;41.80;23.15;;;;;;;;;;5061125;28;20045;-64
2021/07/25 02:02:00;;;;;;;28.98;18.52;;;;;;;;;;5049885;28;20053;-64
2021/07/25 02:04:27;;;;;;;41.22;23.38;;;;;;;;;;5063675;28;20048;-63
2021/07/25 02:06:53;;;;;;;33.63;20.98;;;;;;;;;;5055721;28;20412;-64
2021/07/25 02:09:19;;;;;;;34.78;21.45;;;;;;;;;;5053919;28;20044;-64
2021/07/25 02:11:45;;;;;;;68.13;28.90;;;;;;;;;;5063389;28;20469;-64
2021/07/25 02:14:11;;;;;;;32.33;20.00;;;;;;;;;;5056955;28;20049;-64
2021/07/25 02:16:37;;;;;;;28.38;19.60;;;;;;;;;;5059690;28;20071;-64
2021/07/25 02:19:03;;;;;;;21.58;16.70;;;;;;;;;;5054100;28;20044;-64
2021/07/25 02:21:29;;;;;;;23.27;16.55;;;;;;;;;;5059887;28;20451;-64
2021/07/25 02:23:56;;;;;;;23.80;17.40;;;;;;;;;;5053353;28;20123;-64
2021/07/25 02:26:23;;;;;;;45.70;22.55;;;;;;;;;;5059382;28;20032;-64
2021/07/25 02:28:49;;;;;;;28.95;18.40;;;;;;;;;;5055219;28;20052;-64
2021/07/25 02:31:15;;;;;;;19.95;16.45;;;;;;;;;;5056831;28;20505;-64
2021/07/25 02:33:42;;;;;;;42.70;21.77;;;;;;;;;;5054261;28;20071;-64
2021/07/25 02:36:08;;;;;;;20.75;15.40;;;;;;;;;;5057867;28;20041;-64
2021/07/25 02:38:34;;;;;;;61.30;25.73;;;;;;;;;;5056402;28;20560;-64
2021/07/25 02:41:00;;;;;;;20.40;15.68;;;;;;;;;;5060290;28;20509;-64
2021/07/25 02:43:27;;;;;;;19.67;15.57;;;;;;;;;;5051886;28;20068;-64
2021/07/25 02:45:54;;;;;;;37.53;20.80;;;;;;;;;;5055413;28;20135;-64
2021/07/25 02:48:20;;;;;;;17.75;15.52;;;;;;;;;;5058559;28;20041;-64
2021/07/25 02:50:46;;;;;;;23.52;17.02;;;;;;;;;;5054770;28;20040;-64
2021/07/25 02:53:13;;;;;;;88.40;28.38;;;;;;;;;;5058205;28;20128;-64
2021/07/25 02:55:39;;;;;;;32.03;19.15;;;;;;;;;;5052276;28;20041;-64
2021/07/25 02:58:05;;;;;;;37.45;21.75;;;;;;;;;;5057573;28;20538;-64
2021/07/25 03:00:31;;;;;;;26.25;19.63;;;;;;;;;;5053739;28;20139;-64
2021/07/25 03:02:57;;;;;;;137.20;37.63;;;;;;;;;;5062685;28;20045;-65
2021/07/25 03:05:24;;;;;;;36.70;22.77;;;;;;;;;;5054055;28;20049;-65
2021/07/25 03:07:50;;;;;;;38.42;23.00;;;;;;;;;;5059248;28;20040;-65
2021/07/25 03:10:17;;;;;;;169.88;42.90;;;;;;;;;;5054739;28;20040;-65
2021/07/25 03:12:43;;;;;;;138.05;40.00;;;;;;;;;;5061671;28;20040;-65
2021/07/25 03:15:10;;;;;;;46.40;23.92;;;;;;;;;;5052696;28;20071;-65
2021/07/25 03:17:36;;;;;;;67.57;26.98;;;;;;;;;;5059873;28;20401;-65
2021/07/25 03:20:03;;;;;;;56.80;25.25;;;;;;;;;;5053834;28;20504;-65
2021/07/25 03:22:29;;;;;;;26.75;19.02;;;;;;;;;;5058837;28;20111;-65
2021/07/25 03:24:56;;;;;;;35.50;20.27;;;;;;;;;;5058327;28;20511;-65
2021/07/25 03:27:22;;;;;;;28.42;18.65;;;;;;;;;;5049992;28;20392;-65
2021/07/25 03:29:48;;;;;;;65.35;25.60;;;;;;;;;;5062143;28;20066;-65
2021/07/25 03:32:18;;;;;;;22.40;17.20;;;;;;;;;;5053782;28;20045;-65
2021/07/25 03:34:45;;;;;;;36.05;19.73;;;;;;;;;;5058846;28;20064;-65
2021/07/25 03:37:11;;;;;;;19.33;13.93;;;;;;;;;;5056092;28;20543;-65
2021/07/25 03:39:37;;;;;;;30.40;16.95;;;;;;;;;;5056006;28;20066;-65
2021/07/25 03:42:03;;;;;;;35.88;18.02;;;;;;;;;;5055829;28;20074;-65
2021/07/25 03:44:30;;;;;;;55.10;22.08;;;;;;;;;;5055459;28;20378;-65
2021/07/25 03:46:57;;;;;;;41.25;18.55;;;;;;;;;;5052044;28;20051;-65
2021/07/25 03:49:24;;;;;;;20.05;12.95;;;;;;;;;;5061249;28;20421;-65
2021/07/25 03:51:50;;;;;;;48.40;19.25;;;;;;;;;;5053229;28;20043;-65
2021/07/25 03:54:16;;;;;;;88.75;26.42;;;;;;;;;;5042968;28;20063;-65
2021/07/25 03:56:43;;;;;;;55.15;22.42;;;;;;;;;;5054673;28;20045;-65
2021/07/25 03:59:09;;;;;;;37.60;18.17;;;;;;;;;;5057129;28;20078;-65
2021/07/25 04:01:35;;;;;;;52.67;21.17;;;;;;;;;;5054980;28;20078;-65
2021/07/25 04:04:02;;;;;;;43.50;18.45;;;;;;;;;;5053246;28;20049;-65
2021/07/25 04:06:30;;;;;;;48.90;21.58;;;;;;;;;;5055311;28;20493;-65
2021/07/25 04:09:00;;;;;;;96.57;29.00;;;;;;;;;;5056059;28;20041;-65
2021/07/25 04:11:26;;;;;;;54.83;22.05;;;;;;;;;;5062755;28;20089;-65
2021/07/25 04:13:52;;;;;;;41.47;20.85;;;;;;;;;;5049347;28;20087;-65
2021/07/25 04:16:18;;;;;;;97.07;29.95;;;;;;;;;;5055419;28;20028;-65
2021/07/25 04:18:44;;;;;;;55.25;22.88;;;;;;;;;;5049203;28;20499;-65
2021/07/25 04:21:11;;;;;;;68.57;26.35;;;;;;;;;;5058192;28;20091;-64
2021/07/25 04:23:40;;;;;;;67.35;27.13;;;;;;;;;;5048461;28;20055;-64
2021/07/25 04:26:07;;;;;;;66.00;26.10;;;;;;;;;;5059092;28;20068;-64
2021/07/25 04:28:34;;;;;;;43.58;24.40;;;;;;;;;;5052254;28;20052;-65
2021/07/25 04:31:03;;;;;;;97.07;32.60;;;;;;;;;;5059915;28;20045;-65
2021/07/25 04:33:30;;;;;;;117.55;36.25;;;;;;;;;;5060001;28;20043;-65
2021/07/25 04:35:57;;;;;;;80.93;31.45;;;;;;;;;;5065966;28;20040;-65
2021/07/25 04:38:23;;;;;;;73.25;30.85;;;;;;;;;;5057405;28;20107;-65
2021/07/25 04:40:55;;;;;;;129.48;37.85;;;;;;;;;;5064494;28;20085;-65
2021/07/25 04:43:22;;;;;;;81.85;30.92;;;;;;;;;;5054691;28;20427;-65
2021/07/25 04:46:18;;;;;;;76.13;30.48;;;;;;;;;;5062665;28;20052;-65
2021/07/25 04:48:47;;;;;;;98.68;33.72;;;;;;;;;;5039669;28;20233;-65
2021/07/25 04:51:14;;;;;;;107.47;35.90;;;;;;;;;;5064974;28;20044;-65
2021/07/25 04:53:42;;;;;;;70.43;30.13;;;;;;;;;;5054261;28;20390;-65
2021/07/25 04:56:09;;;;;;;44.47;27.17;;;;;;;;;;5065909;28;20036;-64
2021/07/25 04:58:47;;;;;;;74.80;32.35;;;;;;;;;;5062780;28;20319;-64
2021/07/25 05:01:16;;;;;;;50.80;29.75;;;;;;;;;;5064776;28;20485;-65
2021/07/25 05:03:43;;;;;;;51.80;30.98;;;;;;;;;;5065978;28;20504;-65
2021/07/25 05:06:10;;;;;;;75.70;36.97;;;;;;;;;;5058460;28;20429;-65
2021/07/25 05:08:37;;;;;;;171.95;50.92;;;;;;;;;;5060440;28;20047;-64
2021/07/25 05:11:08;;;;;;;162.10;51.22;;;;;;;;;;5053136;28;20040;-65
2021/07/25 05:13:35;;;;;;;200.25;55.25;;;;;;;;;;5063366;28;20052;-64
2021/07/25 05:16:06;;;;;;;71.15;39.40;;;;;;;;;;5058420;28;20055;-65
2021/07/25 05:18:34;;;;;;;112.45;47.22;;;;;;;;;;5063197;28;20179;-65
2021/07/25 05:21:21;;;;;;;82.80;43.35;;;;;;;;;;5058323;28;20476;-65
2021/07/25 05:23:48;;;;;;;80.85;41.50;;;;;;;;;;5064508;28;20080;-65
2021/07/25 05:26:14;;;;;;;134.98;51.50;;;;;;;;;;5052942;28;20173;-64
2021/07/25 05:28:42;;;;;;;117.00;50.10;;;;;;;;;;5064818;28;20040;-64
2021/07/25 05:31:08;;;;;;;213.68;60.90;;;;;;;;;;5055856;28;20049;-65
2021/07/25 05:33:35;;;;;;;261.95;64.70;;;;;;;;;;5064695;28;20067;-65
2021/07/25 05:36:01;;;;;;;126.90;51.95;;;;;;;;;;5057162;28;20519;-65
2021/07/25 05:38:27;;;;;;;243.05;62.13;;;;;;;;;;5063954;28;20032;-65
2021/07/25 05:40:53;;;;;;;260.20;66.05;;;;;;;;;;5060191;28;20029;-65
2021/07/25 05:43:20;;;;;;;77.13;42.28;;;;;;;;;;5062747;28;20040;-65
2021/07/25 05:45:46;;;;;;;85.45;42.92;;;;;;;;;;5054704;28;20127;-65
2021/07/25 05:48:12;;;;;;;73.15;41.55;;;;;;;;;;5065068;28;20041;-65
2021/07/25 05:50:39;;;;;;;136.32;48.67;;;;;;;;;;5062725;28;20055;-65
2021/07/25 05:53:05;;;;;;;105.65;46.55;;;;;;;;;;5058670;28;20049;-65
2021/07/25 05:55:32;;;;;;;81.57;40.08;;;;;;;;;;5060421;28;20033;-65
2021/07/25 05:57:59;;;;;;;73.60;40.08;;;;;;;;;;5053911;28;20032;-65
2021/07/25 06:00:25;;;;;;;61.92;36.83;;;;;;;;;;5061059;28;20523;-65
2021/07/25 06:02:54;;;;;;;124.13;46.35;;;;;;;;;;5057052;28;20052;-65
2021/07/25 06:05:21;;;;;;;100.90;42.45;;;;;;;;;;5065714;28;20076;-65
2021/07/25 06:07:47;;;;;;;88.60;39.85;;;;;;;;;;5057830;28;20039;-65
2021/07/25 06:10:14;;;;;;;90.78;40.13;;;;;;;;;;5066776;28;20075;-65
2021/07/25 06:12:40;;;;;;;131.00;45.95;;;;;;;;;;5056368;28;20055;-65
2021/07/25 06:15:07;;;;;;;53.28;32.58;;;;;;;;;;5060475;28;20362;-65
2021/07/25 06:17:33;;;;;;;41.60;29.45;;;;;;;;;;5060204;28;20102;-65
2021/07/25 06:19:59;;;;;;;46.92;28.88;;;;;;;;;;5057859;28;20420;-65
2021/07/25 06:22:36;;;;;;;47.58;30.42;;;;;;;;;;5055476;28;20040;-65
2021/07/25 06:25:03;;;;;;;83.57;36.00;;;;;;;;;;5062266;28;20047;-65
2021/07/25 06:27:29;;;;;;;36.65;27.08;;;;;;;;;;5052074;28;20041;-65
2021/07/25 06:29:55;;;;;;;36.22;26.23;;;;;;;;;;5062971;28;20470;-65
2021/07/25 06:32:21;;;;;;;39.80;26.38;;;;;;;;;;5055837;28;20084;-65
2021/07/25 06:34:47;;;;;;;43.40;26.88;;;;;;;;;;5063340;28;20442;-65
2021/07/25 06:37:13;;;;;;;25.90;22.83;;;;;;;;;;5057256;28;20040;-65
2021/07/25 06:39:39;;;;;;;25.90;21.88;;;;;;;;;;5050381;28;20040;-65
2021/07/25 06:42:08;;;;;;;35.03;26.77;;;;;;;;;;5066777;28;20448;-65
2021/07/25 06:44:34;;;;;;;24.23;21.70;;;;;;;;;;5054484;28;20121;-65
2021/07/25 06:47:01;;;;;;;27.48;23.75;;;;;;;;;;5057309;28;20111;-65
2021/07/25 06:49:27;;;;;;;29.98;23.40;;;;;;;;;;5056788;28;20036;-65
2021/07/25 06:51:53;;;;;;;26.20;23.10;;;;;;;;;;5058114;28;20045;-65
2021/07/25 06:54:20;;;;;;;28.73;25.38;;;;;;;;;;5055768;28;20071;-65
2021/07/25 06:56:46;;;;;;;33.03;27.15;;;;;;;;;;5057443;28;20132;-65
2021/07/25 06:59:12;;;;;;;30.67;27.02;;;;;;;;;;5053576;28;20398;-65
2021/07/25 07:01:38;;;;;;;36.72;29.88;;;;;;;;;;5063673;28;20044;-65
2021/07/25 07:04:04;;;;;;;46.78;33.90;;;;;;;;;;5051787;28;20098;-66
2021/07/25 07:06:30;;;;;;;32.75;28.38;;;;;;;;;;5057896;28;20098;-66
2021/07/25 07:08:56;;;;;;;39.40;31.65;;;;;;;;;;5057363;28;20037;-66
2021/07/25 07:11:27;;;;;;;48.40;36.15;;;;;;;;;;5064753;28;20029;-66
2021/07/25 07:13:54;;;;;;;50.30;39.10;;;;;;;;;;5053615;28;20039;-66
2021/07/25 07:16:21;;;;;;;49.03;38.95;;;;;;;;;;5056207;28;20040;-64
2021/07/25 07:18:47;;;;;;;43.00;37.88;;;;;;;;;;5056358;28;20037;-64
2021/07/25 07:21:14;;;;;;;44.80;39.08;;;;;;;;;;5053436;28;20052;-64
2021/07/25 07:23:40;;;;;;;45.67;40.05;;;;;;;;;;5059487;28;20041;-64
2021/07/25 07:26:06;;;;;;;46.60;39.28;;;;;;;;;;5053513;28;20032;-64
2021/07/25 07:28:32;;;;;;;44.15;39.35;;;;;;;;;;5060470;28;20036;-64
2021/07/25 07:30:58;;;;;;;42.10;37.55;;;;;;;;;;5052514;28;20105;-64
2021/07/25 07:33:25;;;;;;;48.78;41.72;;;;;;;;;;5058991;28;20362;-64
2021/07/25 07:35:51;;;;;;;49.42;40.80;;;;;;;;;;5054068;28;20043;-64
2021/07/25 07:38:19;;;;;;;49.97;42.63;;;;;;;;;;5057347;28;20079;-64
2021/07/25 07:40:45;;;;;;;46.60;41.42;;;;;;;;;;5053428;28;20067;-64
2021/07/25 07:43:12;;;;;;;45.10;40.35;;;;;;;;;;5057658;28;20132;-64
2021/07/25 07:45:39;;;;;;;55.45;47.20;;;;;;;;;;5050609;28;20047;-64
2021/07/25 07:48:06;;;;;;;49.63;44.22;;;;;;;;;;5064416;28;20564;-64
2021/07/25 07:50:32;;;;;;;49.53;44.47;;;;;;;;;;5052512;28;20033;-64
2021/07/25 07:52:59;;;;;;;51.22;45.63;;;;;;;;;;5059097;28;20052;-64
2021/07/25 07:55:25;;;;;;;51.33;45.83;;;;;;;;;;5058914;28;20033;-64
2021/07/25 07:57:51;;;;;;;51.40;46.00;;;;;;;;;;5050334;28;20047;-64
2021/07/25 08:00:18;;;;;;;49.67;44.50;;;;;;;;;;5061222;28;20408;-64
2021/07/25 08:02:44;;;;;;;54.05;48.40;;;;;;;;;;5058648;28;20050;-64
2021/07/25 08:05:11;;;;;;;49.17;43.92;;;;;;;;;;5066043;28;20048;-64
2021/07/25 08:07:37;;;;;;;50.80;45.45;;;;;;;;;;5059407;28;20072;-64
2021/07/25 08:10:04;;;;;;;53.97;48.15;;;;;;;;;;5061343;28;20037;-64
2021/07/25 08:12:31;;;;;;;49.28;44.03;;;;;;;;;;5056140;28;20041;-65
2021/07/25 08:14:57;;;;;;;46.88;42.08;;;;;;;;;;5061807;28;20036;-65
2021/07/25 08:17:23;;;;;;;44.17;39.75;;;;;;;;;;5059806;28;20033;-65
2021/07/25 08:19:49;;;;;;;42.28;37.92;;;;;;;;;;5063232;28;20131;-65
2021/07/25 08:22:15;;;;;;;47.10;42.35;;;;;;;;;;5053961;28;20087;-65
2021/07/25 08:24:41;;;;;;;43.20;38.92;;;;;;;;;;5062025;28;20067;-65
2021/07/25 08:27:08;;;;;;;41.92;37.45;;;;;;;;;;5057502;28;20498;-65
2021/07/25 08:29:34;;;;;;;44.20;39.78;;;;;;;;;;5065420;28;20485;-66
2021/07/25 08:32:01;;;;;;;38.70;34.72;;;;;;;;;;5054647;28;20037;-66
2021/07/25 08:34:27;;;;;;;38.08;34.50;;;;;;;;;;5060053;28;20045;-66
2021/07/25 08:36:53;;;;;;;37.67;34.13;;;;;;;;;;5068304;28;20119;-66
2021/07/25 08:39:20;;;;;;;38.70;34.90;;;;;;;;;;5057285;28;20044;-66
2021/07/25 08:41:52;;;;;;;34.85;31.52;;;;;;;;;;5060035;28;20041;-67
2021/07/25 08:44:37;;;;;;;37.85;34.08;;;;;;;;;;5053492;28;20056;-67
2021/07/25 08:47:04;;;;;;;32.55;29.45;;;;;;;;;;5057080;28;20087;-67
2021/07/25 08:49:41;;;;;;;34.08;30.90;;;;;;;;;;5058244;28;20576;-67
2021/07/25 08:52:12;;;;;;;34.08;30.77;;;;;;;;;;5059785;28;20478;-67
2021/07/25 08:54:39;;;;;;;38.30;34.70;;;;;;;;;;5057218;28;20453;-68
2021/07/25 08:57:06;;;;;;;41.83;37.63;;;;;;;;;;5059659;28;20048;-68
2021/07/25 08:59:35;;;;;;;41.92;37.95;;;;;;;;;;5054862;28;20080;-68
2021/07/25 09:02:01;;;;;;;39.15;35.58;;;;;;;;;;5061086;28;20289;-68
2021/07/25 09:04:28;;;;;;;40.03;36.25;;;;;;;;;;5057416;28;20090;-68
2021/07/25 09:06:55;;;;;;;42.08;38.05;;;;;;;;;;5063969;28;20139;-68
2021/07/25 09:09:21;;;;;;;41.70;37.78;;;;;;;;;;5059681;28;20529;-67
2021/07/25 09:11:48;;;;;;;44.13;40.03;;;;;;;;;;5065101;28;20082;-68
2021/07/25 09:14:14;;;;;;;42.28;38.42;;;;;;;;;;5055683;28;20074;-68
2021/07/25 09:16:41;;;;;;;41.28;37.45;;;;;;;;;;5061598;28;20041;-70
2021/07/25 09:19:07;;;;;;;42.42;38.28;;;;;;;;;;5057692;28;20444;-70
2021/07/25 09:21:42;;;;;;;39.92;36.25;;;;;;;;;;5060153;28;20725;-70
2021/07/25 09:24:25;;;;;;;37.03;33.60;;;;;;;;;;5054357;28;20051;-70
2021/07/25 09:26:57;;;;;;;41.97;38.17;;;;;;;;;;5061378;28;20037;-70
2021/07/25 09:29:27;;;;;;;38.83;35.25;;;;;;;;;;5049921;28;20063;-70
2021/07/25 09:32:34;;;;;;;40.83;37.17;;;;;;;;;;5060284;28;20032;-70
2021/07/25 09:35:00;;;;;;;37.22;33.67;;;;;;;;;;4963517;28;20182;-70
2021/07/25 09:37:26;;;;;;;35.97;32.72;;;;;;;;;;4970040;28;20047;-70
2021/07/25 09:39:53;;;;;;;32.55;29.73;;;;;;;;;;5005898;28;20076;-70
2021/07/25 09:42:37;;;;;;;32.63;29.70;;;;;;;;;;5063323;28;20060;-71
2021/07/25 09:45:03;;;;;;;30.02;27.13;;;;;;;;;;5059714;28;20754;-72
2021/07/25 09:47:33;;;;;;;25.85;23.45;;;;;;;;;;5062181;28;20400;-72
2021/07/25 09:50:00;;;;;;;26.58;23.88;;;;;;;;;;5054691;28;20041;-72
2021/07/25 09:52:39;;;;;;;23.50;21.35;;;;;;;;;;5042357;28;20067;-72
2021/07/25 09:55:07;;;;;;;24.33;21.83;;;;;;;;;;5054552;28;20123;-72
2021/07/25 09:57:37;;;;;;;24.40;22.00;;;;;;;;;;5060397;28;20032;-73
2021/07/25 10:00:08;;;;;;;20.48;18.33;;;;;;;;;;5060029;28;20132;-73
2021/07/25 10:02:38;;;;;;;22.67;20.48;;;;;;;;;;5051614;28;20056;-73
2021/07/25 10:05:07;;;;;;;19.60;17.70;;;;;;;;;;5058522;28;20087;-73
2021/07/25 10:07:34;;;;;;;21.77;19.73;;;;;;;;;;5055671;28;20060;-73
2021/07/25 10:10:01;;;;;;;20.15;18.33;;;;;;;;;;5060068;28;20586;-73
2021/07/25 10:12:35;;;;;;;20.92;19.13;;;;;;;;;;5039611;28;20045;-73
2021/07/25 10:15:02;;;;;;;19.58;17.77;;;;;;;;;;5055814;28;20095;-73
2021/07/25 10:17:31;;;;;;;16.30;14.75;;;;;;;;;;5056185;28;20445;-73
2021/07/25 10:19:58;;;;;;;19.15;17.40;;;;;;;;;;5037663;28;20136;-73
2021/07/25 10:22:27;;;;;;;18.05;16.27;;;;;;;;;;5031404;28;20057;-73
2021/07/25 10:24:57;;;;;;;17.75;16.15;;;;;;;;;;5059240;28;20041;-73
2021/07/25 10:27:23;;;;;;;14.82;13.43;;;;;;;;;;5054224;28;20414;-73
2021/07/25 10:29:51;;;;;;;14.75;13.35;;;;;;;;;;5055056;28;20128;-74
2021/07/25 10:32:19;;;;;;;15.30;13.85;;;;;;;;;;5056769;28;20039;-73
2021/07/25 10:34:46;;;;;;;14.88;13.50;;;;;;;;;;5039764;28;20052;-73
2021/07/25 10:37:12;;;;;;;14.27;12.77;;;;;;;;;;5053420;28;20414;-74
2021/07/25 10:39:43;;;;;;;14.27;12.88;;;;;;;;;;5060220;28;20025;-74
2021/07/25 10:42:09;;;;;;;14.55;13.10;;;;;;;;;;5056302;28;20111;-74
2021/07/25 10:44:35;;;;;;;13.93;12.73;;;;;;;;;;5060702;28;20119;-69
2021/07/25 10:47:22;;;;;;;16.45;14.85;;;;;;;;;;5062591;28;20378;-69
2021/07/25 10:49:58;;;;;;;16.92;15.25;;;;;;;;;;5058900;28;20218;-69
2021/07/25 10:52:25;;;;;;;16.20;14.73;;;;;;;;;;5054506;28;20041;-69
2021/07/25 10:54:51;;;;;;;19.20;17.52;;;;;;;;;;5058880;28;20051;-69
2021/07/25 10:57:18;;;;;;;19.17;17.48;;;;;;;;;;5063984;28;20041;-69
2021/07/25 10:59:44;;;;;;;21.00;18.80;;;;;;;;;;5052987;28;20041;-69
2021/07/25 11:02:13;;;;;;;22.08;19.83;;;;;;;;;;5063836;28;20044;-69
2021/07/25 11:04:48;;;;;;;22.13;20.05;;;;;;;;;;5058715;28;20040;-68
2021/07/25 11:07:23;;;;;;;22.83;20.63;;;;;;;;;;5062271;28;20040;-68
2021/07/25 11:09:56;;;;;;;24.05;21.67;;;;;;;;;;5052743;28;20412;-67
2021/07/25 11:12:22;;;;;;;25.65;23.33;;;;;;;;;;5056347;28;20059;-68
2021/07/25 11:14:58;;;;;;;26.80;24.20;;;;;;;;;;5052937;28;20029;-67
2021/07/25 11:17:43;;;;;;;30.02;26.92;;;;;;;;;;5056073;28;20048;-67
2021/07/25 11:20:29;;;;;;;32.63;29.27;;;;;;;;;;5050808;28;20039;-67
2021/07/25 11:22:55;;;;;;;30.13;27.35;;;;;;;;;;5054750;28;20074;-67
2021/07/25 11:25:29;;;;;;;31.55;28.58;;;;;;;;;;5056426;28;20135;-67
2021/07/25 11:27:55;;;;;;;31.10;28.20;;;;;;;;;;5058987;28;20044;-65
2021/07/25 11:30:40;;;;;;;32.00;28.88;;;;;;;;;;5053224;28;20051;-65
2021/07/25 11:33:06;;;;;;;30.55;27.40;;;;;;;;;;5054037;28;20102;-66
2021/07/25 11:35:32;;;;;;;30.77;27.83;;;;;;;;;;5052117;28;20484;-65
2021/07/25 11:37:58;;;;;;;28.33;25.73;;;;;;;;;;5062282;28;20535;-65
2021/07/25 11:40:25;;;;;;;32.25;29.35;;;;;;;;;;5052516;28;20040;-67
2021/07/25 11:42:51;;;;;;;30.40;27.67;;;;;;;;;;5059348;28;20029;-67
2021/07/25 11:45:17;;;;;;;34.20;31.13;;;;;;;;;;5049971;28;20398;-66
2021/07/25 11:47:45;;;;;;;33.50;30.42;;;;;;;;;;5060732;28;20040;-66
2021/07/25 11:50:11;;;;;;;33.63;30.33;;;;;;;;;;5051821;28;20048;-66
2021/07/25 11:52:37;;;;;;;31.23;28.25;;;;;;;;;;5039452;28;20354;-66
2021/07/25 11:55:04;;;;;;;30.80;27.98;;;;;;;;;;5037829;28;20049;-66
2021/07/25 11:57:30;;;;;;;31.75;28.85;;;;;;;;;;5061581;28;20056;-66
2021/07/25 11:59:59;;;;;;;29.20;26.40;;;;;;;;;;5057825;28;20399;-66
2021/07/25 12:02:30;;;;;;;31.25;28.35;;;;;;;;;;5054378;28;20052;-66
2021/07/25 12:04:57;;;;;;;29.45;26.85;;;;;;;;;;5059943;28;20041;-67
2021/07/25 12:07:29;;;;;;;30.30;27.40;;;;;;;;;;5055475;28;20094;-67
2021/07/25 12:09:56;;;;;;;32.78;29.67;;;;;;;;;;5061082;28;20311;-67
2021/07/25 12:12:22;;;;;;;31.13;28.15;;;;;;;;;;5053130;28;20052;-67
2021/07/25 12:14:50;;;;;;;32.13;29.15;;;;;;;;;;5055797;28;20049;-67
2021/07/25 12:17:35;;;;;;;29.42;26.77;;;;;;;;;;5053793;28;20092;-68
2021/07/25 12:20:20;;;;;;;30.40;27.65;;;;;;;;;;5042927;28;20049;-68
2021/07/25 12:22:54;;;;;;;26.58;24.20;;;;;;;;;;5052145;28;20098;-68
2021/07/25 12:25:20;;;;;;;;;;;;;;;;;;5057620;28;20071;-68
2021/07/25 12:27:46;;;;;;;26.10;23.67;;;;;;;;;;5049526;28;20265;-68
2021/07/25 12:30:16;;;;;;;25.42;23.17;;;;;;;;;;5059880;28;20132;-68
2021/07/25 12:32:43;;;;;;;24.20;21.92;;;;;;;;;;5054207;28;20416;-68
2021/07/25 12:35:09;;;;;;;24.58;22.25;;;;;;;;;;5060472;28;20074;-68
2021/07/25 12:37:49;;;;;;;23.23;21.13;;;;;;;;;;5053567;28;20199;-68
2021/07/25 12:40:26;;;;;;;22.25;20.15;;;;;;;;;;5062734;28;20484;-68
2021/07/25 12:42:59;;;;;;;20.52;18.38;;;;;;;;;;5055803;28;20051;-69
2021/07/25 12:45:28;;;;;;;21.23;19.25;;;;;;;;;;5057095;28;20033;-69
2021/07/25 12:48:13;;;;;;;18.30;16.70;;;;;;;;;;5052099;28;20045;-69
2021/07/25 12:50:44;;;;;;;16.75;15.07;;;;;;;;;;5052487;28;20045;-69
2021/07/25 12:53:20;;;;;;;20.13;18.23;;;;;;;;;;5054625;28;20037;-69
2021/07/25 12:55:50;;;;;;;19.27;17.50;;;;;;;;;;5060103;28;20045;-69
2021/07/25 12:58:17;;;;;;;16.65;15.05;;;;;;;;;;5058017;28;20503;-69
2021/07/25 13:01:04;;;;;;;17.45;15.80;;;;;;;;;;5040773;28;20084;-69
2021/07/25 13:03:52;;;;;;;17.73;16.02;;;;;;;;;;5035850;28;20072;-68
2021/07/25 13:06:19;;;;;;;14.63;13.15;;;;;;;;;;5039483;28;20486;-68
2021/07/25 13:08:46;;;;;;;15.30;13.88;;;;;;;;;;5034681;28;20134;-68
2021/07/25 13:11:13;;;;;;;17.40;15.75;;;;;;;;;;5046873;28;20025;-68
2021/07/25 13:13:40;;;;;;;16.52;15.02;;;;;;;;;;5038487;28;20106;-68
2021/07/25 13:16:15;;;;;;;16.48;14.98;;;;;;;;;;5040651;28;20091;-68
2021/07/25 13:18:42;;;;;;;17.92;16.33;;;;;;;;;;5033804;28;20126;-68
2021/07/25 13:21:08;;;;;;;17.75;16.10;;;;;;;;;;5045137;28;20032;-68
2021/07/25 13:23:35;;;;;;;17.13;15.43;;;;;;;;;;5037382;28;20127;-68
2021/07/25 13:26:02;;;;;;;18.40;16.60;;;;;;;;;;5040311;28;20254;-68
2021/07/25 13:28:28;;;;;;;17.33;15.63;;;;;;;;;;5033439;28;20439;-68
2021/07/25 13:30:54;;;;;;;16.45;14.77;;;;;;;;;;5044384;28;20044;-68
2021/07/25 13:33:20;;;;;;;14.77;13.27;;;;;;;;;;5039423;28;20587;-68
2021/07/25 13:35:49;;;;;;;14.82;13.35;;;;;;;;;;5038649;28;20053;-68
2021/07/25 13:38:16;;;;;;;14.45;13.25;;;;;;;;;;5034560;28;20094;-68
2021/07/25 13:40:42;;;;;;;14.40;12.98;;;;;;;;;;5033256;28;20525;-68
2021/07/25 13:43:11;;;;;;;14.45;13.05;;;;;;;;;;5041665;28;20049;-68
2021/07/25 13:45:51;;;;;;;14.88;13.48;;;;;;;;;;5035664;28;20477;-68
2021/07/25 13:48:18;;;;;;;14.48;13.27;;;;;;;;;;5042432;28;20049;-68
2021/07/25 13:50:44;;;;;;;13.25;11.98;;;;;;;;;;5037419;28;20162;-68
2021/07/25 13:53:10;;;;;;;14.48;13.15;;;;;;;;;;5040359;28;20067;-68
2021/07/25 13:55:37;;;;;;;12.57;11.48;;;;;;;;;;5037462;28;20047;-68
2021/07/25 13:58:04;;;;;;;13.75;12.48;;;;;;;;;;5044865;28;20033;-68
2021/07/25 14:00:31;;;;;;;15.10;13.65;;;;;;;;;;5041282;28;20056;-68
2021/07/25 14:03:00;;;;;;;13.57;12.18;;;;;;;;;;5057617;28;20041;-67
2021/07/25 14:05:32;;;;;;;13.88;12.57;;;;;;;;;;5050983;28;20048;-68
2021/07/25 14:07:58;;;;;;;13.18;11.93;;;;;;;;;;5052768;28;20029;-68
2021/07/25 14:10:25;;;;;;;11.95;10.85;;;;;;;;;;5052328;28;20388;-68
2021/07/25 14:12:51;;;;;;;13.25;11.93;;;;;;;;;;5059919;28;20045;-68
2021/07/25 14:15:18;;;;;;;11.07;9.98;;;;;;;;;;5055224;28;20051;-68
2021/07/25 14:17:44;;;;;;;12.63;11.43;;;;;;;;;;5057570;28;20532;-68
2021/07/25 14:20:13;;;;;;;10.55;9.63;;;;;;;;;;5062562;28;20060;-68
2021/07/25 14:22:42;;;;;;;10.25;9.30;;;;;;;;;;5031056;28;20110;-68